createdAt,value
2023-02-17T00:02:11.825Z,9.10
2023-02-17T00:04:39.430Z,9.05
2023-02-17T00:07:07.024Z,9.18
2023-02-17T00:09:36.032Z,9.60
2023-02-17T00:12:03.669Z,10.35
2023-02-17T00:14:31.275Z,9.65
2023-02-17T00:16:58.906Z,10.00
2023-02-17T00:19:26.512Z,9.38
2023-02-17T00:21:56.030Z,10.07
2023-02-17T00:24:24.130Z,11.35
2023-02-17T00:26:53.258Z,11.25
2023-02-17T00:29:20.997Z,11.35
2023-02-17T00:31:48.859Z,11.23
2023-02-17T00:34:18.265Z,12.30
2023-02-17T00:36:45.922Z,11.07
2023-02-17T00:39:14.296Z,12.13
2023-02-17T00:41:42.178Z,11.60
2023-02-17T00:44:17.105Z,12.00
2023-02-17T00:46:44.884Z,13.52
2023-02-17T00:49:16.722Z,13.30
2023-02-17T00:51:45.055Z,14.10
2023-02-17T00:54:12.792Z,14.63
2023-02-17T00:56:40.980Z,15.80
2023-02-17T00:59:08.843Z,16.40
2023-02-17T01:01:38.954Z,14.80
2023-02-17T01:04:06.833Z,15.48
2023-02-17T01:06:36.455Z,15.73
2023-02-17T01:09:05.819Z,14.13
2023-02-17T01:11:34.817Z,14.20
2023-02-17T01:14:04.897Z,13.82
2023-02-17T01:16:35.283Z,13.55
2023-02-17T01:19:05.069Z,14.88
2023-02-17T01:24:01.939Z,15.18
2023-02-17T01:26:31.004Z,14.30
2023-02-17T01:28:59.079Z,13.82
2023-02-17T01:31:28.180Z,14.40
2023-02-17T01:33:57.732Z,15.98
2023-02-17T01:36:26.888Z,17.00
2023-02-17T01:38:54.544Z,15.25
2023-02-17T01:41:26.542Z,17.15
2023-02-17T01:44:09.784Z,16.92
2023-02-17T01:46:37.760Z,16.88
2023-02-17T01:49:08.608Z,17.73
2023-02-17T01:51:38.848Z,19.52
2023-02-17T01:54:08.680Z,18.80
2023-02-17T01:56:38.702Z,18.05
2023-02-17T01:59:11.103Z,18.67
2023-02-17T02:01:38.874Z,18.27
2023-02-17T02:04:07.404Z,18.15
2023-02-17T02:06:37.578Z,18.33
2023-02-17T02:09:08.113Z,19.60
2023-02-17T02:11:37.153Z,20.17
2023-02-17T02:14:06.769Z,17.00
2023-02-17T02:16:38.895Z,17.25
2023-02-17T02:19:24.612Z,17.30
2023-02-17T02:22:19.714Z,17.13
2023-02-17T02:24:55.709Z,18.63
2023-02-17T02:27:33.741Z,18.33
2023-02-17T02:30:36.897Z,16.58
2023-02-17T02:33:12.258Z,16.48
2023-02-17T02:35:46.687Z,15.07
2023-02-17T02:38:17.176Z,17.52
2023-02-17T02:40:48.805Z,15.27
2023-02-17T02:43:17.120Z,15.00
2023-02-17T02:45:44.837Z,14.70
2023-02-17T02:48:13.835Z,16.02
2023-02-17T02:50:52.917Z,14.77
2023-02-17T02:53:35.838Z,15.32
2023-02-17T02:56:07.578Z,13.02
2023-02-17T02:58:41.232Z,14.00
2023-02-17T03:01:14.006Z,13.18
2023-02-17T03:03:47.277Z,13.43
2023-02-17T03:06:20.046Z,15.95
2023-02-17T03:08:50.526Z,11.85
2023-02-17T03:11:32.223Z,12.98
2023-02-17T03:14:04.599Z,12.40
2023-02-17T03:16:32.533Z,14.07
2023-02-17T03:19:01.609Z,13.00
2023-02-17T03:21:33.588Z,13.52
2023-02-17T03:24:01.206Z,15.77
2023-02-17T03:26:28.873Z,13.27
2023-02-17T03:28:56.537Z,13.35
2023-02-17T03:31:24.293Z,13.70
2023-02-17T03:33:52.140Z,12.77
2023-02-17T03:36:21.102Z,14.05
2023-02-17T03:38:48.687Z,15.23
2023-02-17T03:41:16.342Z,14.07
2023-02-17T03:43:43.910Z,13.20
2023-02-17T03:46:12.452Z,13.77
2023-02-17T03:48:40.522Z,14.25
2023-02-17T03:51:13.039Z,14.68
2023-02-17T03:53:42.632Z,14.25
2023-02-17T03:56:10.868Z,15.10
2023-02-17T03:58:39.078Z,14.52
2023-02-17T04:01:07.581Z,13.63
2023-02-17T04:03:36.705Z,12.60
2023-02-17T04:06:04.907Z,13.55
2023-02-17T04:08:33.516Z,13.05
2023-02-17T04:11:03.553Z,13.60
2023-02-17T04:13:31.275Z,16.42
2023-02-17T04:15:59.105Z,14.10
2023-02-17T04:18:26.870Z,13.88
2023-02-17T04:20:55.484Z,14.57
2023-02-17T04:23:23.211Z,14.10
2023-02-17T04:25:51.092Z,14.82
2023-02-17T04:28:21.362Z,14.40
2023-02-17T04:30:51.737Z,14.85
2023-02-17T04:33:19.578Z,13.77
2023-02-17T04:35:48.643Z,15.27
2023-02-17T04:38:16.598Z,15.52
2023-02-17T04:40:44.249Z,15.35
2023-02-17T04:43:11.855Z,15.70
2023-02-17T04:45:40.847Z,13.75
2023-02-17T04:48:08.477Z,13.73
2023-02-17T04:50:36.071Z,16.30
2023-02-17T04:53:03.685Z,16.23
2023-02-17T04:55:31.420Z,15.25
2023-02-17T04:57:59.088Z,16.00
2023-02-17T05:00:27.056Z,15.65
2023-02-17T05:02:55.998Z,14.93
2023-02-17T05:05:23.673Z,15.38
2023-02-17T05:07:51.307Z,15.55
2023-02-17T05:10:19.864Z,15.65
2023-02-17T05:12:47.482Z,16.92
2023-02-17T05:15:15.187Z,14.82
2023-02-17T05:17:42.752Z,15.40
2023-02-17T05:20:12.757Z,14.65
2023-02-17T05:22:40.406Z,15.88
2023-02-17T05:25:08.275Z,14.57
2023-02-17T05:27:36.017Z,15.27
2023-02-17T05:30:03.900Z,15.30
2023-02-17T05:32:31.723Z,14.65
2023-02-17T05:34:59.358Z,15.48
2023-02-17T05:37:29.007Z,18.40
2023-02-17T05:39:56.666Z,18.05
2023-02-17T05:42:28.670Z,18.05
2023-02-17T05:44:56.512Z,17.93
2023-02-17T05:47:25.400Z,17.38
2023-02-17T05:49:54.255Z,16.85
2023-02-17T05:52:21.932Z,17.25
2023-02-17T05:54:50.894Z,17.10
2023-02-17T05:57:18.551Z,16.25
2023-02-17T05:59:46.152Z,16.48
2023-02-17T06:02:13.700Z,16.15
2023-02-17T06:04:41.295Z,14.77
2023-02-17T06:07:08.884Z,15.00
2023-02-17T06:09:36.556Z,14.70
2023-02-17T06:12:06.218Z,13.60
2023-02-17T06:14:33.877Z,15.20
2023-02-17T06:17:04.024Z,14.55
2023-02-17T06:19:31.739Z,14.40
2023-02-17T06:21:59.365Z,14.60
2023-02-17T06:24:27.014Z,13.93
2023-02-17T06:26:54.626Z,13.43
2023-02-17T06:29:23.526Z,13.15
2023-02-17T06:31:51.301Z,14.07
2023-02-17T06:34:19.022Z,13.75
2023-02-17T06:36:46.646Z,13.73
2023-02-17T06:39:14.262Z,13.32
2023-02-17T06:41:42.719Z,13.82
2023-02-17T06:44:10.430Z,12.40
2023-02-17T06:46:39.468Z,13.85
2023-02-17T06:49:07.106Z,13.90
2023-02-17T06:51:34.706Z,13.15
2023-02-17T06:54:02.381Z,13.77
2023-02-17T06:56:30.020Z,14.87
2023-02-17T06:58:57.655Z,13.70
2023-02-17T07:01:27.025Z,14.00
2023-02-17T07:03:56.626Z,14.05
2023-02-17T07:06:25.238Z,13.25
2023-02-17T07:08:53.349Z,13.90
2023-02-17T07:11:21.204Z,13.35
2023-02-17T07:13:48.956Z,13.88
2023-02-17T07:16:16.655Z,12.57
2023-02-17T07:18:44.478Z,12.90
2023-02-17T07:21:13.427Z,12.68
2023-02-17T07:23:41.006Z,13.93
2023-02-17T07:26:10.269Z,13.27
2023-02-17T07:28:38.853Z,14.02
2023-02-17T07:31:07.588Z,12.35
2023-02-17T07:33:35.719Z,12.10
2023-02-17T07:36:07.459Z,12.32
2023-02-17T07:38:37.348Z,12.35
2023-02-17T07:41:06.288Z,11.83
2023-02-17T07:43:34.117Z,13.00
2023-02-17T07:46:01.711Z,12.75
2023-02-17T07:48:29.304Z,12.00
2023-02-17T07:50:56.872Z,12.93
2023-02-17T07:53:24.643Z,12.35
2023-02-17T07:55:53.591Z,12.85
2023-02-17T07:58:21.131Z,12.82
2023-02-17T08:00:48.674Z,12.38
2023-02-17T08:03:16.215Z,12.50
2023-02-17T08:05:43.766Z,11.73
2023-02-17T08:08:28.765Z,11.88
2023-02-17T08:11:19.562Z,11.88
2023-02-17T08:13:47.232Z,13.05
2023-02-17T08:16:14.881Z,12.40
2023-02-17T08:18:42.570Z,13.13
2023-02-17T08:21:10.144Z,12.25
2023-02-17T08:23:37.735Z,12.57
2023-02-17T08:26:07.155Z,12.07
2023-02-17T08:28:34.995Z,11.10
2023-02-17T08:31:06.227Z,11.23
2023-02-17T08:33:33.926Z,10.50
2023-02-17T08:36:07.555Z,11.25
2023-02-17T08:38:35.366Z,10.80
2023-02-17T08:41:02.970Z,11.18
2023-02-17T08:43:32.042Z,11.13
2023-02-17T08:46:00.419Z,11.50
2023-02-17T08:48:28.186Z,10.13
2023-02-17T08:50:55.845Z,11.07
2023-02-17T08:53:23.511Z,10.17
2023-02-17T08:55:51.156Z,10.50
2023-02-17T08:58:18.836Z,10.75
2023-02-17T09:00:47.849Z,10.05
2023-02-17T09:03:15.579Z,10.18
2023-02-17T09:05:43.300Z,10.07
2023-02-17T09:08:11.150Z,10.45
2023-02-17T09:10:39.407Z,9.55
2023-02-17T09:13:07.139Z,8.60
2023-02-17T09:15:34.822Z,9.07
2023-02-17T09:18:04.049Z,8.73
2023-02-17T09:20:31.653Z,8.95
2023-02-17T09:22:59.273Z,7.90
2023-02-17T09:25:26.852Z,7.50
2023-02-17T09:27:54.535Z,8.18
2023-02-17T09:30:22.214Z,7.97
2023-02-17T09:32:49.880Z,8.07
2023-02-17T09:35:19.631Z,7.75
2023-02-17T09:37:47.293Z,7.63
2023-02-17T09:40:20.848Z,7.63
2023-02-17T09:42:48.685Z,7.22
2023-02-17T09:45:21.330Z,7.82
2023-02-17T09:47:51.095Z,6.90
2023-02-17T09:50:23.488Z,7.30
2023-02-17T09:52:55.904Z,6.70
2023-02-17T09:55:26.729Z,6.80
2023-02-17T09:57:58.301Z,6.93
2023-02-17T10:00:28.317Z,6.80
2023-02-17T10:03:00.438Z,7.70
2023-02-17T10:05:31.517Z,6.50
2023-02-17T10:08:03.697Z,6.30
2023-02-17T10:10:33.962Z,6.30
2023-02-17T10:13:03.775Z,6.03
2023-02-17T10:15:35.852Z,6.03
2023-02-17T10:18:10.070Z,6.60
2023-02-17T10:20:42.188Z,6.47
2023-02-17T10:23:14.741Z,5.90
2023-02-17T10:26:06.962Z,6.03
2023-02-17T10:28:51.581Z,5.95
2023-02-17T10:31:30.030Z,5.80
2023-02-17T10:34:03.966Z,5.38
2023-02-17T10:36:43.343Z,6.15
2023-02-17T10:39:15.296Z,4.88
2023-02-17T10:41:43.978Z,5.72
2023-02-17T10:44:15.993Z,5.22
2023-02-17T10:46:44.333Z,5.88
2023-02-17T10:49:20.381Z,4.70
2023-02-17T10:51:49.329Z,4.75
2023-02-17T10:54:32.075Z,5.13
2023-02-17T10:57:02.715Z,4.55
2023-02-17T10:59:33.615Z,5.20
2023-02-17T11:02:13.823Z,4.63
2023-02-17T11:04:42.583Z,4.72
2023-02-17T11:07:13.564Z,4.03
2023-02-17T11:09:46.132Z,4.20
2023-02-17T11:12:16.404Z,4.32
2023-02-17T11:14:47.131Z,3.67
2023-02-17T11:17:18.122Z,3.80
2023-02-17T11:19:55.937Z,3.92
2023-02-17T11:22:32.783Z,3.90
2023-02-17T11:25:01.297Z,3.72
2023-02-17T11:27:29.048Z,4.15
2023-02-17T11:30:06.895Z,4.32
2023-02-17T11:32:34.503Z,3.33
2023-02-17T11:35:05.088Z,4.03
2023-02-17T11:37:39.003Z,3.70
2023-02-17T11:40:26.067Z,3.50
2023-02-17T11:42:58.684Z,3.30
2023-02-17T11:45:29.010Z,3.75
2023-02-17T11:48:06.692Z,3.83
2023-02-17T11:50:42.709Z,4.13
2023-02-17T11:53:24.965Z,3.45
2023-02-17T11:56:01.986Z,3.50
2023-02-17T11:58:37.410Z,3.22
2023-02-17T12:01:16.799Z,3.93
2023-02-17T12:04:04.703Z,3.22
2023-02-17T12:06:39.804Z,4.10
2023-02-17T12:09:16.379Z,3.20
2023-02-17T12:11:48.702Z,3.58
2023-02-17T12:14:32.310Z,3.60
2023-02-17T12:17:04.044Z,3.13
2023-02-17T12:19:42.851Z,3.40
2023-02-17T12:22:18.284Z,3.20
2023-02-17T12:24:57.333Z,3.30
2023-02-17T12:27:32.688Z,3.13
2023-02-17T12:30:09.903Z,3.67
2023-02-17T12:32:50.059Z,2.70
2023-02-17T12:35:20.345Z,2.90
2023-02-17T12:37:52.029Z,2.90
2023-02-17T12:40:32.914Z,2.92
2023-02-17T12:43:03.073Z,3.50
2023-02-17T12:45:38.546Z,3.30
2023-02-17T12:48:08.461Z,3.42
2023-02-17T12:50:38.809Z,2.97
2023-02-17T12:53:14.231Z,3.30
2023-02-17T12:55:48.440Z,3.70
2023-02-17T12:58:18.628Z,2.58
2023-02-17T13:00:48.331Z,3.28
2023-02-17T13:03:16.141Z,3.58
2023-02-17T13:05:45.891Z,3.60
2023-02-17T13:08:17.731Z,3.20
2023-02-17T13:10:46.730Z,3.10
2023-02-17T13:13:26.326Z,3.30
2023-02-17T13:16:03.515Z,2.78
2023-02-17T13:18:32.742Z,3.10
2023-02-17T13:21:01.796Z,2.83
2023-02-17T13:23:41.004Z,3.25
2023-02-17T13:26:27.898Z,3.20
2023-02-17T13:29:20.270Z,2.80
2023-02-17T13:31:51.661Z,2.83
2023-02-17T13:34:28.585Z,3.78
2023-02-17T13:36:56.475Z,3.03
2023-02-17T13:39:38.411Z,2.90
2023-02-17T13:42:37.982Z,2.97
2023-02-17T13:47:41.664Z,3.15
2023-02-17T13:50:28.983Z,2.22
2023-02-17T13:52:56.965Z,2.47
2023-02-17T13:55:25.026Z,2.65
2023-02-17T14:00:25.444Z,2.88
2023-02-17T14:02:54.988Z,2.33
2023-02-17T14:05:37.906Z,3.33
2023-02-17T14:08:07.594Z,2.97
2023-02-17T14:10:35.928Z,3.33
2023-02-17T14:13:05.005Z,3.40
2023-02-17T14:15:32.751Z,2.60
2023-02-17T14:18:00.494Z,3.15
2023-02-17T14:20:30.886Z,3.27
2023-02-17T14:23:05.102Z,3.20
2023-02-17T14:25:34.914Z,3.05
2023-02-17T14:28:02.504Z,2.72
2023-02-17T14:30:33.491Z,2.58
2023-02-17T14:33:06.804Z,3.25
2023-02-17T14:35:35.663Z,2.80
2023-02-17T14:38:17.794Z,3.28
2023-02-17T14:40:45.380Z,3.00
2023-02-17T14:43:13.007Z,3.08
2023-02-17T14:45:42.006Z,2.70
2023-02-17T14:48:09.733Z,2.80
2023-02-17T14:50:42.261Z,2.88
2023-02-17T14:53:13.196Z,2.50
2023-02-17T14:55:47.074Z,2.80
2023-02-17T14:58:19.209Z,3.30
2023-02-17T15:00:48.611Z,2.25
2023-02-17T15:03:16.444Z,3.03
2023-02-17T15:05:44.278Z,2.90
2023-02-17T15:08:14.691Z,2.95
2023-02-17T15:10:42.369Z,3.10
2023-02-17T15:13:13.459Z,3.38
2023-02-17T15:15:44.749Z,2.92
2023-02-17T15:18:13.953Z,2.83
2023-02-17T15:20:43.646Z,2.42
2023-02-17T15:23:13.428Z,2.95
2023-02-17T15:25:41.115Z,3.25
2023-02-17T15:28:08.918Z,2.72
2023-02-17T15:30:37.404Z,2.88
2023-02-17T15:33:05.252Z,2.88
2023-02-17T15:35:34.250Z,2.28
2023-02-17T15:38:01.889Z,2.50
2023-02-17T15:40:30.735Z,2.90
2023-02-17T15:43:01.098Z,2.97
2023-02-17T15:45:28.773Z,2.88
2023-02-17T15:48:03.916Z,3.03
2023-02-17T15:50:31.807Z,3.38
2023-02-17T15:53:00.824Z,2.90
2023-02-17T15:55:29.244Z,3.33
2023-02-17T15:57:58.914Z,3.30
2023-02-17T16:00:28.650Z,3.28
2023-02-17T16:02:56.550Z,3.30
2023-02-17T16:05:27.393Z,2.58
2023-02-17T16:07:56.194Z,2.92
2023-02-17T16:10:27.398Z,3.35
2023-02-17T16:12:57.255Z,3.13
2023-02-17T16:15:26.605Z,3.10
2023-02-17T16:17:55.564Z,3.33
2023-02-17T16:20:25.860Z,2.72
2023-02-17T16:22:53.647Z,3.00
2023-02-17T16:25:22.480Z,3.45
2023-02-17T16:27:53.253Z,3.33
2023-02-17T16:30:23.175Z,2.58
2023-02-17T16:32:52.336Z,2.90
2023-02-17T16:35:21.424Z,2.60
2023-02-17T16:37:53.647Z,3.85
2023-02-17T16:40:22.759Z,3.92
2023-02-17T16:42:52.049Z,3.17
2023-02-17T16:45:21.953Z,3.30
2023-02-17T16:47:52.593Z,3.40
2023-02-17T16:50:24.658Z,2.47
2023-02-17T16:52:53.233Z,3.55
2023-02-17T16:55:22.329Z,3.13
2023-02-17T16:57:52.040Z,2.95
2023-02-17T17:00:22.562Z,2.67
2023-02-17T17:02:50.725Z,2.47
2023-02-17T17:05:19.509Z,2.80
2023-02-17T17:07:47.986Z,3.38
2023-02-17T17:10:20.309Z,2.80
2023-02-17T17:12:47.997Z,2.50
2023-02-17T17:15:17.675Z,3.33
2023-02-17T17:17:47.462Z,2.88
2023-02-17T17:20:17.658Z,2.70
2023-02-17T17:22:46.679Z,3.30
2023-02-17T17:25:14.635Z,3.13
2023-02-17T17:27:42.702Z,3.47
2023-02-17T17:30:18.578Z,3.47
2023-02-17T17:47:35.873Z,2.33
2023-02-17T17:50:03.537Z,1.95
2023-02-17T17:52:31.173Z,2.22
2023-02-17T17:54:58.776Z,2.30
2023-02-17T17:57:26.367Z,2.70
2023-02-17T17:59:54.073Z,2.85
2023-02-17T18:02:21.763Z,2.72
2023-02-17T18:04:50.827Z,2.25
2023-02-17T18:07:18.598Z,3.00
2023-02-17T18:09:46.474Z,2.50
2023-02-17T18:12:17.231Z,3.03
2023-02-17T18:14:45.306Z,2.42
2023-02-17T18:17:13.595Z,2.40
2023-02-17T18:19:41.563Z,2.75
2023-02-17T18:22:10.658Z,2.40
2023-02-17T18:24:38.280Z,2.40
2023-02-17T18:27:06.433Z,2.22
2023-02-17T18:29:34.012Z,2.90
2023-02-17T18:32:01.731Z,2.15
2023-02-17T18:34:29.551Z,3.00
2023-02-17T18:36:57.229Z,2.53
2023-02-17T18:39:26.258Z,3.08
2023-02-17T18:41:54.154Z,1.98
2023-02-17T18:44:21.829Z,3.00
2023-02-17T18:46:49.491Z,2.35
2023-02-17T18:49:17.193Z,1.92
2023-02-17T18:51:44.851Z,2.40
2023-02-17T18:54:12.850Z,3.03
2023-02-17T18:56:41.887Z,2.40
2023-02-17T18:59:09.583Z,2.80
2023-02-17T19:01:39.437Z,3.45
2023-02-17T19:06:35.090Z,2.65
2023-02-17T19:09:04.225Z,2.55
2023-02-17T19:11:32.172Z,3.55
2023-02-17T19:14:02.984Z,2.47
2023-02-17T19:16:32.265Z,2.60
2023-02-17T19:19:00.758Z,2.13
2023-02-17T19:21:28.889Z,2.30
2023-02-17T19:23:56.578Z,2.58
2023-02-17T19:26:24.267Z,1.83
2023-02-17T19:28:51.923Z,2.13
2023-02-17T19:31:21.763Z,2.58
2023-02-17T19:33:49.551Z,1.80
2023-02-17T19:36:18.625Z,2.10
2023-02-17T19:38:46.376Z,2.47
2023-02-17T19:41:15.245Z,2.58
2023-02-17T19:43:43.438Z,2.15
2023-02-17T19:46:12.421Z,2.05
2023-02-17T19:48:41.955Z,2.92
2023-02-17T19:51:10.392Z,2.63
2023-02-17T19:53:38.013Z,2.60
2023-02-17T19:56:11.976Z,3.85
2023-02-17T19:58:40.443Z,3.88
2023-02-17T20:01:09.193Z,2.33
2023-02-17T20:03:37.205Z,2.13
2023-02-17T20:06:08.762Z,2.60
2023-02-17T20:08:36.704Z,2.47
2023-02-17T20:11:07.786Z,2.20
2023-02-17T20:13:45.191Z,2.67
2023-02-17T20:16:15.191Z,2.00
2023-02-17T20:18:44.571Z,1.90
2023-02-17T20:21:15.530Z,3.40
2023-02-17T20:23:43.183Z,2.25
2023-02-17T20:26:12.513Z,2.47
2023-02-17T20:28:40.525Z,3.15
2023-02-17T20:31:08.640Z,2.75
2023-02-17T20:33:36.638Z,2.50
2023-02-17T20:36:05.250Z,2.30
2023-02-17T20:38:34.608Z,3.45
2023-02-17T20:41:02.903Z,2.42
2023-02-17T20:43:30.628Z,3.00
2023-02-17T20:45:58.589Z,2.90
2023-02-17T20:48:27.603Z,2.80
2023-02-17T20:50:55.718Z,2.88
2023-02-17T20:53:23.586Z,3.00
2023-02-17T20:55:52.660Z,3.03
2023-02-17T20:58:20.369Z,2.45
2023-02-17T21:00:48.471Z,2.10
2023-02-17T21:03:16.222Z,2.88
2023-02-17T21:05:43.874Z,2.13
2023-02-17T21:08:11.557Z,2.53
2023-02-17T21:10:39.896Z,2.25
2023-02-17T21:13:08.856Z,2.00
2023-02-17T21:15:36.450Z,2.05
2023-02-17T21:18:05.572Z,1.90
2023-02-17T21:20:33.223Z,1.77
2023-02-17T21:23:01.562Z,2.15
2023-02-17T21:25:29.180Z,2.83
2023-02-17T21:27:56.742Z,3.03
2023-02-17T21:30:26.292Z,2.75
2023-02-17T21:32:55.157Z,2.50
2023-02-17T21:35:22.827Z,2.08
2023-02-17T21:37:50.346Z,2.10
2023-02-17T21:40:18.023Z,2.35
2023-02-17T21:43:03.067Z,2.30
2023-02-17T21:45:38.438Z,3.17
2023-02-17T21:48:06.634Z,2.30
2023-02-17T21:50:34.392Z,2.85
2023-02-17T21:53:02.073Z,2.63
2023-02-17T21:55:29.715Z,1.80
2023-02-17T21:57:57.335Z,2.58
2023-02-17T22:00:25.276Z,2.10
2023-02-17T22:02:54.388Z,2.88
2023-02-17T22:05:22.023Z,1.70
2023-02-17T22:07:49.943Z,1.80
2023-02-17T22:10:18.411Z,2.50
2023-02-17T22:12:45.983Z,2.53
2023-02-17T22:15:15.988Z,2.22
2023-02-17T22:17:44.012Z,1.80
2023-02-17T22:20:15.117Z,2.38
2023-02-17T22:22:42.734Z,2.05
2023-02-17T22:25:10.400Z,1.65
2023-02-17T22:27:37.993Z,2.22
2023-02-17T22:30:06.917Z,1.50
2023-02-17T22:32:34.583Z,1.85
2023-02-17T22:35:02.229Z,1.27
2023-02-17T22:37:31.275Z,1.60
2023-02-17T22:39:59.161Z,1.80
2023-02-17T22:42:26.919Z,3.22
2023-02-17T22:44:54.593Z,1.77
2023-02-17T22:47:22.290Z,1.40
2023-02-17T22:49:49.907Z,1.67
2023-02-17T22:52:17.623Z,1.50
2023-02-17T22:54:46.711Z,1.30
2023-02-17T22:57:14.421Z,1.40
2023-02-17T22:59:42.043Z,1.10
2023-02-17T23:02:09.721Z,1.52
2023-02-17T23:04:37.351Z,1.35
2023-02-17T23:07:04.979Z,1.25
2023-02-17T23:09:32.563Z,1.98
2023-02-17T23:12:01.633Z,1.10
2023-02-17T23:14:32.072Z,1.50
2023-02-17T23:17:01.387Z,2.60
2023-02-17T23:19:30.102Z,1.40
2023-02-17T23:21:59.125Z,1.40
2023-02-17T23:24:27.623Z,1.45
2023-02-17T23:26:56.718Z,1.40
2023-02-17T23:29:26.023Z,1.10
2023-02-17T23:31:54.017Z,1.38
2023-02-17T23:34:21.892Z,1.70
2023-02-17T23:36:49.854Z,1.42
2023-02-17T23:39:17.981Z,1.55
2023-02-17T23:41:45.658Z,1.30
2023-02-17T23:44:14.501Z,1.98
2023-02-17T23:46:44.587Z,1.83
2023-02-17T23:49:14.405Z,2.15
2023-02-17T23:51:42.601Z,1.55
2023-02-17T23:54:10.272Z,1.60
2023-02-17T23:56:38.187Z,2.17
2023-02-17T23:59:06.623Z,1.90
